sensor_id;sensor_type;location;lat;lon;timestamp;temperature;humidity
70550;DHT22;58101;48.658;2.328;2023-03-31T00:01:48;12.10;99.90
70550;DHT22;58101;48.658;2.328;2023-03-31T00:04:13;12.10;99.90
70550;DHT22;58101;48.658;2.328;2023-03-31T00:06:40;12.10;99.90
70550;DHT22;58101;48.658;2.328;2023-03-31T00:09:16;12.10;99.90
70550;DHT22;58101;48.658;2.328;2023-03-31T00:11:44;12.20;99.90
70550;DHT22;58101;48.658;2.328;2023-03-31T00:14:10;12.30;99.90
70550;DHT22;58101;48.658;2.328;2023-03-31T00:16:37;12.20;99.90
70550;DHT22;58101;48.658;2.328;2023-03-31T00:19:04;12.20;99.90
70550;DHT22;58101;48.658;2.328;2023-03-31T00:21:30;12.20;99.90
70550;DHT22;58101;48.658;2.328;2023-03-31T00:24:04;12.20;99.90
70550;DHT22;58101;48.658;2.328;2023-03-31T00:26:30;12.10;99.90
70550;DHT22;58101;48.658;2.328;2023-03-31T00:28:57;12.10;99.90
70550;DHT22;58101;48.658;2.328;2023-03-31T00:31:23;12.00;99.90
70550;DHT22;58101;48.658;2.328;2023-03-31T00:33:49;12.10;99.90
70550;DHT22;58101;48.658;2.328;2023-03-31T00:36:15;11.90;99.90
70550;DHT22;58101;48.658;2.328;2023-03-31T00:38:52;11.90;99.90
70550;DHT22;58101;48.658;2.328;2023-03-31T00:41:18;11.90;99.90
70550;DHT22;58101;48.658;2.328;2023-03-31T00:49:26;11.70;99.90
70550;DHT22;58101;48.658;2.328;2023-03-31T00:51:56;11.70;99.90
70550;DHT22;58101;48.658;2.328;2023-03-31T00:54:25;11.90;99.90
70550;DHT22;58101;48.658;2.328;2023-03-31T00:56:53;11.80;99.90
70550;DHT22;58101;48.658;2.328;2023-03-31T00:59:22;11.70;99.90
70550;DHT22;58101;48.658;2.328;2023-03-31T01:01:49;11.60;99.90
70550;DHT22;58101;48.658;2.328;2023-03-31T01:04:15;11.70;99.90
70550;DHT22;58101;48.658;2.328;2023-03-31T01:06:55;11.70;99.90
70550;DHT22;58101;48.658;2.328;2023-03-31T01:09:29;11.70;99.90
70550;DHT22;58101;48.658;2.328;2023-03-31T01:12:00;11.60;99.90
70550;DHT22;58101;48.658;2.328;2023-03-31T01:14:26;11.60;99.90
70550;DHT22;58101;48.658;2.328;2023-03-31T01:16:51;11.60;99.90
70550;DHT22;58101;48.658;2.328;2023-03-31T01:19:37;11.60;99.90
70550;DHT22;58101;48.658;2.328;2023-03-31T01:24:57;11.60;99.90
70550;DHT22;58101;48.658;2.328;2023-03-31T01:27:57;11.60;99.90
70550;DHT22;58101;48.658;2.328;2023-03-31T01:33:14;11.50;99.90
70550;DHT22;58101;48.658;2.328;2023-03-31T01:36:02;11.60;99.90
70550;DHT22;58101;48.658;2.328;2023-03-31T01:38:54;11.60;99.90
70550;DHT22;58101;48.658;2.328;2023-03-31T01:44:46;11.50;99.90
70550;DHT22;58101;48.658;2.328;2023-03-31T01:46:55;11.50;99.90
70550;DHT22;58101;48.658;2.328;2023-03-31T01:49:34;11.60;99.90
70550;DHT22;58101;48.658;2.328;2023-03-31T01:55:08;11.60;99.90
70550;DHT22;58101;48.658;2.328;2023-03-31T01:57:44;11.50;99.90
70550;DHT22;58101;48.658;2.328;2023-03-31T02:00:14;11.50;99.90
70550;DHT22;58101;48.658;2.328;2023-03-31T02:02:47;11.50;99.90
70550;DHT22;58101;48.658;2.328;2023-03-31T02:05:21;11.60;99.90
70550;DHT22;58101;48.658;2.328;2023-03-31T02:08:03;11.50;99.90
70550;DHT22;58101;48.658;2.328;2023-03-31T02:10:31;11.50;99.90
70550;DHT22;58101;48.658;2.328;2023-03-31T02:12:59;11.50;99.90
70550;DHT22;58101;48.658;2.328;2023-03-31T02:15:29;11.40;99.90
70550;DHT22;58101;48.658;2.328;2023-03-31T02:17:57;11.40;99.90
70550;DHT22;58101;48.658;2.328;2023-03-31T02:20:26;11.50;99.90
70550;DHT22;58101;48.658;2.328;2023-03-31T02:22:54;11.40;99.90
70550;DHT22;58101;48.658;2.328;2023-03-31T02:25:37;11.40;99.90
70550;DHT22;58101;48.658;2.328;2023-03-31T02:28:10;11.40;99.90
70550;DHT22;58101;48.658;2.328;2023-03-31T02:31:05;11.50;99.90
70550;DHT22;58101;48.658;2.328;2023-03-31T02:33:31;11.50;99.90
70550;DHT22;58101;48.658;2.328;2023-03-31T02:35:58;11.50;99.90
70550;DHT22;58101;48.658;2.328;2023-03-31T02:38:24;11.60;99.90
70550;DHT22;58101;48.658;2.328;2023-03-31T02:40:50;11.50;99.90
70550;DHT22;58101;48.658;2.328;2023-03-31T02:43:16;11.50;99.90
70550;DHT22;58101;48.658;2.328;2023-03-31T02:45:47;11.60;99.90
70550;DHT22;58101;48.658;2.328;2023-03-31T02:48:35;11.60;99.90
70550;DHT22;58101;48.658;2.328;2023-03-31T02:59:05;11.50;99.90
70550;DHT22;58101;48.658;2.328;2023-03-31T03:01:58;11.50;99.90
70550;DHT22;58101;48.658;2.328;2023-03-31T03:04:36;11.60;99.90
70550;DHT22;58101;48.658;2.328;2023-03-31T03:07:15;11.60;99.90
70550;DHT22;58101;48.658;2.328;2023-03-31T03:15:53;11.60;99.90
70550;DHT22;58101;48.658;2.328;2023-03-31T03:18:20;11.60;99.90
70550;DHT22;58101;48.658;2.328;2023-03-31T03:20:45;11.60;99.90
70550;DHT22;58101;48.658;2.328;2023-03-31T03:23:14;11.50;99.90
70550;DHT22;58101;48.658;2.328;2023-03-31T03:25:40;11.60;99.90
70550;DHT22;58101;48.658;2.328;2023-03-31T03:28:06;11.50;99.90
70550;DHT22;58101;48.658;2.328;2023-03-31T03:30:32;11.60;99.90
70550;DHT22;58101;48.658;2.328;2023-03-31T03:32:57;11.60;99.90
70550;DHT22;58101;48.658;2.328;2023-03-31T03:35:23;11.60;99.90
70550;DHT22;58101;48.658;2.328;2023-03-31T03:37:49;11.60;99.90
70550;DHT22;58101;48.658;2.328;2023-03-31T03:40:15;11.60;99.90
70550;DHT22;58101;48.658;2.328;2023-03-31T03:42:40;11.60;99.90
70550;DHT22;58101;48.658;2.328;2023-03-31T03:45:06;11.60;99.90
70550;DHT22;58101;48.658;2.328;2023-03-31T03:47:32;11.60;99.90
70550;DHT22;58101;48.658;2.328;2023-03-31T03:49:58;11.70;99.90
70550;DHT22;58101;48.658;2.328;2023-03-31T03:52:23;11.70;99.90
70550;DHT22;58101;48.658;2.328;2023-03-31T03:54:49;11.70;99.90
70550;DHT22;58101;48.658;2.328;2023-03-31T03:57:15;11.70;99.90
70550;DHT22;58101;48.658;2.328;2023-03-31T03:59:40;11.60;99.90
70550;DHT22;58101;48.658;2.328;2023-03-31T04:02:06;11.70;99.90
70550;DHT22;58101;48.658;2.328;2023-03-31T04:04:33;11.70;99.90
70550;DHT22;58101;48.658;2.328;2023-03-31T04:06:58;11.60;99.90
70550;DHT22;58101;48.658;2.328;2023-03-31T04:09:25;11.60;99.90
70550;DHT22;58101;48.658;2.328;2023-03-31T04:11:50;11.60;99.90
70550;DHT22;58101;48.658;2.328;2023-03-31T04:14:16;11.60;99.90
70550;DHT22;58101;48.658;2.328;2023-03-31T04:16:41;11.50;99.90
70550;DHT22;58101;48.658;2.328;2023-03-31T04:19:07;11.60;99.90
70550;DHT22;58101;48.658;2.328;2023-03-31T04:21:35;11.60;99.90
70550;DHT22;58101;48.658;2.328;2023-03-31T04:24:01;11.60;99.90
70550;DHT22;58101;48.658;2.328;2023-03-31T04:26:31;11.60;99.90
70550;DHT22;58101;48.658;2.328;2023-03-31T04:29:08;11.60;99.90
70550;DHT22;58101;48.658;2.328;2023-03-31T04:31:35;11.50;99.90
70550;DHT22;58101;48.658;2.328;2023-03-31T04:34:03;11.60;99.90
70550;DHT22;58101;48.658;2.328;2023-03-31T04:36:32;11.60;99.90
70550;DHT22;58101;48.658;2.328;2023-03-31T04:38:59;11.60;99.90
70550;DHT22;58101;48.658;2.328;2023-03-31T04:41:25;11.70;99.90
70550;DHT22;58101;48.658;2.328;2023-03-31T04:43:54;11.70;99.90
70550;DHT22;58101;48.658;2.328;2023-03-31T04:46:20;11.70;99.90
70550;DHT22;58101;48.658;2.328;2023-03-31T04:48:46;11.60;99.90
70550;DHT22;58101;48.658;2.328;2023-03-31T04:51:11;11.70;99.90
70550;DHT22;58101;48.658;2.328;2023-03-31T04:53:39;11.70;99.90
70550;DHT22;58101;48.658;2.328;2023-03-31T04:56:05;11.70;99.90
70550;DHT22;58101;48.658;2.328;2023-03-31T04:58:32;11.80;99.90
70550;DHT22;58101;48.658;2.328;2023-03-31T05:00:57;11.70;99.90
70550;DHT22;58101;48.658;2.328;2023-03-31T05:03:23;11.80;99.90
70550;DHT22;58101;48.658;2.328;2023-03-31T05:05:48;11.70;99.90
70550;DHT22;58101;48.658;2.328;2023-03-31T05:08:14;11.70;99.90
70550;DHT22;58101;48.658;2.328;2023-03-31T05:10:40;11.80;99.90
70550;DHT22;58101;48.658;2.328;2023-03-31T05:13:08;11.70;99.90
70550;DHT22;58101;48.658;2.328;2023-03-31T05:15:39;11.80;99.90
70550;DHT22;58101;48.658;2.328;2023-03-31T05:18:08;11.70;99.90
70550;DHT22;58101;48.658;2.328;2023-03-31T05:20:34;11.70;99.90
70550;DHT22;58101;48.658;2.328;2023-03-31T05:22:59;11.60;99.90
70550;DHT22;58101;48.658;2.328;2023-03-31T05:25:25;11.60;99.90
70550;DHT22;58101;48.658;2.328;2023-03-31T05:27:56;11.80;99.90
70550;DHT22;58101;48.658;2.328;2023-03-31T05:30:22;11.60;99.90
70550;DHT22;58101;48.658;2.328;2023-03-31T05:32:50;11.60;99.90
70550;DHT22;58101;48.658;2.328;2023-03-31T05:35:16;11.70;99.90
70550;DHT22;58101;48.658;2.328;2023-03-31T05:37:42;11.50;99.90
70550;DHT22;58101;48.658;2.328;2023-03-31T05:40:08;11.70;99.90
70550;DHT22;58101;48.658;2.328;2023-03-31T05:42:35;11.50;99.90
70550;DHT22;58101;48.658;2.328;2023-03-31T05:45:01;11.50;99.90
70550;DHT22;58101;48.658;2.328;2023-03-31T05:47:27;11.50;99.90
70550;DHT22;58101;48.658;2.328;2023-03-31T05:49:52;11.60;99.90
70550;DHT22;58101;48.658;2.328;2023-03-31T05:52:18;11.50;99.90
70550;DHT22;58101;48.658;2.328;2023-03-31T05:54:44;11.40;99.90
70550;DHT22;58101;48.658;2.328;2023-03-31T05:57:10;11.50;99.90
70550;DHT22;58101;48.658;2.328;2023-03-31T05:59:36;11.50;99.90
70550;DHT22;58101;48.658;2.328;2023-03-31T06:02:03;11.50;99.90
70550;DHT22;58101;48.658;2.328;2023-03-31T06:04:28;11.50;99.90
70550;DHT22;58101;48.658;2.328;2023-03-31T06:06:56;11.50;99.90
70550;DHT22;58101;48.658;2.328;2023-03-31T06:09:23;11.50;99.90
70550;DHT22;58101;48.658;2.328;2023-03-31T06:11:48;11.50;99.90
70550;DHT22;58101;48.658;2.328;2023-03-31T06:14:14;11.60;99.90
70550;DHT22;58101;48.658;2.328;2023-03-31T06:16:41;11.60;99.90
70550;DHT22;58101;48.658;2.328;2023-03-31T06:19:06;11.60;99.90
70550;DHT22;58101;48.658;2.328;2023-03-31T06:21:33;11.60;99.90
70550;DHT22;58101;48.658;2.328;2023-03-31T06:23:59;11.70;99.90
70550;DHT22;58101;48.658;2.328;2023-03-31T06:26:25;11.50;99.90
70550;DHT22;58101;48.658;2.328;2023-03-31T06:28:52;11.50;99.90
70550;DHT22;58101;48.658;2.328;2023-03-31T06:31:20;11.50;99.90
70550;DHT22;58101;48.658;2.328;2023-03-31T06:33:46;11.50;99.90
70550;DHT22;58101;48.658;2.328;2023-03-31T06:36:15;11.50;99.90
70550;DHT22;58101;48.658;2.328;2023-03-31T06:38:41;11.60;99.90
70550;DHT22;58101;48.658;2.328;2023-03-31T06:41:08;11.50;99.90
70550;DHT22;58101;48.658;2.328;2023-03-31T06:43:36;11.60;99.90
70550;DHT22;58101;48.658;2.328;2023-03-31T06:46:01;11.60;99.90
70550;DHT22;58101;48.658;2.328;2023-03-31T06:48:30;11.70;99.90
70550;DHT22;58101;48.658;2.328;2023-03-31T06:50:59;11.80;99.90
70550;DHT22;58101;48.658;2.328;2023-03-31T06:53:25;11.60;99.90
70550;DHT22;58101;48.658;2.328;2023-03-31T06:55:50;11.70;99.90
70550;DHT22;58101;48.658;2.328;2023-03-31T06:58:16;11.70;99.90
70550;DHT22;58101;48.658;2.328;2023-03-31T07:00:42;11.70;99.90
70550;DHT22;58101;48.658;2.328;2023-03-31T07:03:10;11.70;99.90
70550;DHT22;58101;48.658;2.328;2023-03-31T07:05:36;11.90;99.90
70550;DHT22;58101;48.658;2.328;2023-03-31T07:08:04;11.90;99.90
70550;DHT22;58101;48.658;2.328;2023-03-31T07:10:31;11.90;99.90
70550;DHT22;58101;48.658;2.328;2023-03-31T07:12:57;11.90;99.90
70550;DHT22;58101;48.658;2.328;2023-03-31T07:15:23;11.90;99.90
70550;DHT22;58101;48.658;2.328;2023-03-31T07:17:49;11.90;99.90
70550;DHT22;58101;48.658;2.328;2023-03-31T07:20:18;12.00;99.90
70550;DHT22;58101;48.658;2.328;2023-03-31T07:22:46;11.90;99.90
70550;DHT22;58101;48.658;2.328;2023-03-31T07:25:14;12.00;99.90
70550;DHT22;58101;48.658;2.328;2023-03-31T07:27:40;11.90;99.90
70550;DHT22;58101;48.658;2.328;2023-03-31T07:30:08;12.00;99.90
70550;DHT22;58101;48.658;2.328;2023-03-31T07:32:34;12.10;99.90
70550;DHT22;58101;48.658;2.328;2023-03-31T07:35:05;12.10;99.90
70550;DHT22;58101;48.658;2.328;2023-03-31T07:37:42;12.20;99.90
70550;DHT22;58101;48.658;2.328;2023-03-31T07:40:11;12.40;99.90
70550;DHT22;58101;48.658;2.328;2023-03-31T07:42:37;12.30;99.90
70550;DHT22;58101;48.658;2.328;2023-03-31T07:45:04;12.30;99.90
70550;DHT22;58101;48.658;2.328;2023-03-31T07:47:31;12.30;99.90
70550;DHT22;58101;48.658;2.328;2023-03-31T07:49:57;12.30;99.90
70550;DHT22;58101;48.658;2.328;2023-03-31T07:52:23;12.30;99.90
70550;DHT22;58101;48.658;2.328;2023-03-31T07:54:49;12.30;99.90
70550;DHT22;58101;48.658;2.328;2023-03-31T07:57:16;12.30;99.90
70550;DHT22;58101;48.658;2.328;2023-03-31T07:59:45;12.30;99.90
70550;DHT22;58101;48.658;2.328;2023-03-31T08:02:15;12.40;99.90
70550;DHT22;58101;48.658;2.328;2023-03-31T08:04:42;12.40;99.90
70550;DHT22;58101;48.658;2.328;2023-03-31T08:07:11;12.40;99.90
70550;DHT22;58101;48.658;2.328;2023-03-31T08:09:38;12.50;99.90
70550;DHT22;58101;48.658;2.328;2023-03-31T08:12:04;12.40;99.90
70550;DHT22;58101;48.658;2.328;2023-03-31T08:14:30;12.60;99.90
70550;DHT22;58101;48.658;2.328;2023-03-31T08:16:56;12.50;99.90
70550;DHT22;58101;48.658;2.328;2023-03-31T08:19:22;12.50;99.90
70550;DHT22;58101;48.658;2.328;2023-03-31T08:21:49;12.40;99.90
70550;DHT22;58101;48.658;2.328;2023-03-31T08:24:16;12.40;99.90
70550;DHT22;58101;48.658;2.328;2023-03-31T08:26:42;12.40;99.90
70550;DHT22;58101;48.658;2.328;2023-03-31T08:29:07;12.40;99.90
70550;DHT22;58101;48.658;2.328;2023-03-31T08:31:33;12.40;99.90
70550;DHT22;58101;48.658;2.328;2023-03-31T08:33:59;12.50;99.90
70550;DHT22;58101;48.658;2.328;2023-03-31T08:36:25;12.50;99.90
70550;DHT22;58101;48.658;2.328;2023-03-31T08:38:52;12.60;99.90
70550;DHT22;58101;48.658;2.328;2023-03-31T08:46:54;12.80;99.90
70550;DHT22;58101;48.658;2.328;2023-03-31T08:49:21;12.80;99.90
70550;DHT22;58101;48.658;2.328;2023-03-31T08:51:57;12.80;99.90
70550;DHT22;58101;48.658;2.328;2023-03-31T08:54:37;12.90;99.90
70550;DHT22;58101;48.658;2.328;2023-03-31T08:57:11;12.90;99.90
70550;DHT22;58101;48.658;2.328;2023-03-31T08:59:39;12.80;99.90
70550;DHT22;58101;48.658;2.328;2023-03-31T09:02:33;12.90;99.90
70550;DHT22;58101;48.658;2.328;2023-03-31T09:05:07;13.00;99.90
70550;DHT22;58101;48.658;2.328;2023-03-31T09:10:53;13.10;99.90
70550;DHT22;58101;48.658;2.328;2023-03-31T09:16:02;13.40;99.90
70550;DHT22;58101;48.658;2.328;2023-03-31T09:18:36;13.40;99.90
70550;DHT22;58101;48.658;2.328;2023-03-31T09:21:37;13.30;99.90
70550;DHT22;58101;48.658;2.328;2023-03-31T09:24:27;13.30;99.90
70550;DHT22;58101;48.658;2.328;2023-03-31T09:27:01;13.40;99.90
70550;DHT22;58101;48.658;2.328;2023-03-31T09:29:56;13.40;99.90
70550;DHT22;58101;48.658;2.328;2023-03-31T09:32:27;13.50;99.90
70550;DHT22;58101;48.658;2.328;2023-03-31T09:34:56;13.50;99.90
70550;DHT22;58101;48.658;2.328;2023-03-31T09:37:29;13.40;99.90
70550;DHT22;58101;48.658;2.328;2023-03-31T09:39:59;13.50;99.90
70550;DHT22;58101;48.658;2.328;2023-03-31T09:42:25;13.50;99.90
70550;DHT22;58101;48.658;2.328;2023-03-31T09:44:51;13.50;99.90
70550;DHT22;58101;48.658;2.328;2023-03-31T09:47:25;13.60;99.90
70550;DHT22;58101;48.658;2.328;2023-03-31T09:49:53;13.50;99.90
70550;DHT22;58101;48.658;2.328;2023-03-31T11:37:05;16.60;88.60
70550;DHT22;58101;48.658;2.328;2023-03-31T11:42:02;16.70;68.40
70550;DHT22;58101;48.658;2.328;2023-03-31T11:44:33;16.80;69.40
70550;DHT22;58101;48.658;2.328;2023-03-31T11:47:25;17.40;69.30
70550;DHT22;58101;48.658;2.328;2023-03-31T11:49:55;17.30;69.70
70550;DHT22;58101;48.658;2.328;2023-03-31T11:52:34;17.40;71.30
70550;DHT22;58101;48.658;2.328;2023-03-31T11:55:22;17.20;71.40
70550;DHT22;58101;48.658;2.328;2023-03-31T12:00:24;18.00;70.80
70550;DHT22;58101;48.658;2.328;2023-03-31T12:05:28;18.80;65.40
70550;DHT22;58101;48.658;2.328;2023-03-31T12:08:03;19.10;63.70
70550;DHT22;58101;48.658;2.328;2023-03-31T12:10:40;19.10;63.80
70550;DHT22;58101;48.658;2.328;2023-03-31T12:13:33;18.80;62.40
70550;DHT22;58101;48.658;2.328;2023-03-31T12:16:10;18.60;63.10
70550;DHT22;58101;48.658;2.328;2023-03-31T12:21:27;17.30;65.90
70550;DHT22;58101;48.658;2.328;2023-03-31T12:23:54;16.70;70.90
70550;DHT22;58101;48.658;2.328;2023-03-31T12:29:22;16.10;81.00
70550;DHT22;58101;48.658;2.328;2023-03-31T12:31:56;15.90;88.20
70550;DHT22;58101;48.658;2.328;2023-03-31T12:34:25;15.60;94.90
70550;DHT22;58101;48.658;2.328;2023-03-31T12:37:23;15.70;92.00
70550;DHT22;58101;48.658;2.328;2023-03-31T12:40:17;16.00;92.30
70550;DHT22;58101;48.658;2.328;2023-03-31T12:42:57;16.30;87.20
70550;DHT22;58101;48.658;2.328;2023-03-31T12:45:30;16.30;83.30
70550;DHT22;58101;48.658;2.328;2023-03-31T12:51:05;16.30;84.50
70550;DHT22;58101;48.658;2.328;2023-03-31T12:53:40;16.00;87.70
70550;DHT22;58101;48.658;2.328;2023-03-31T12:56:08;16.10;85.60
70550;DHT22;58101;48.658;2.328;2023-03-31T12:58:39;16.00;80.90
70550;DHT22;58101;48.658;2.328;2023-03-31T13:01:18;15.70;78.10
70550;DHT22;58101;48.658;2.328;2023-03-31T13:08:57;15.60;90.40
70550;DHT22;58101;48.658;2.328;2023-03-31T13:16:47;16.00;82.90
70550;DHT22;58101;48.658;2.328;2023-03-31T13:19:33;15.90;80.10
70550;DHT22;58101;48.658;2.328;2023-03-31T13:22:02;16.00;83.50
70550;DHT22;58101;48.658;2.328;2023-03-31T13:24:29;16.20;83.20
70550;DHT22;58101;48.658;2.328;2023-03-31T13:30:00;16.20;77.30
70550;DHT22;58101;48.658;2.328;2023-03-31T13:32:26;16.40;77.40
70550;DHT22;58101;48.658;2.328;2023-03-31T13:35:23;16.50;75.90
70550;DHT22;58101;48.658;2.328;2023-03-31T13:38:08;16.70;76.20
70550;DHT22;58101;48.658;2.328;2023-03-31T13:51:59;15.90;78.80
70550;DHT22;58101;48.658;2.328;2023-03-31T14:06:04;13.20;99.90
70550;DHT22;58101;48.658;2.328;2023-03-31T14:08:50;13.30;99.90
70550;DHT22;58101;48.658;2.328;2023-03-31T14:11:24;13.50;99.90
70550;DHT22;58101;48.658;2.328;2023-03-31T14:14:16;13.70;99.90
70550;DHT22;58101;48.658;2.328;2023-03-31T14:16:48;13.90;99.90
70550;DHT22;58101;48.658;2.328;2023-03-31T14:22:01;14.20;99.90
70550;DHT22;58101;48.658;2.328;2023-03-31T14:27:46;14.40;99.90
70550;DHT22;58101;48.658;2.328;2023-03-31T14:33:27;14.80;99.90
70550;DHT22;58101;48.658;2.328;2023-03-31T14:38:44;14.90;99.90
70550;DHT22;58101;48.658;2.328;2023-03-31T14:41:16;14.80;99.90
70550;DHT22;58101;48.658;2.328;2023-03-31T14:43:52;14.80;99.90
70550;DHT22;58101;48.658;2.328;2023-03-31T14:46:38;15.00;99.90
70550;DHT22;58101;48.658;2.328;2023-03-31T14:49:34;15.10;98.30
70550;DHT22;58101;48.658;2.328;2023-03-31T14:52:17;15.10;99.30
70550;DHT22;58101;48.658;2.328;2023-03-31T14:54:47;15.00;92.30
70550;DHT22;58101;48.658;2.328;2023-03-31T14:57:16;14.80;91.70
70550;DHT22;58101;48.658;2.328;2023-03-31T14:59:46;14.80;93.00
70550;DHT22;58101;48.658;2.328;2023-03-31T15:02:17;14.70;93.40
70550;DHT22;58101;48.658;2.328;2023-03-31T15:04:46;14.70;96.50
70550;DHT22;58101;48.658;2.328;2023-03-31T15:07:14;14.40;99.90
70550;DHT22;58101;48.658;2.328;2023-03-31T15:09:45;14.10;99.90
70550;DHT22;58101;48.658;2.328;2023-03-31T15:25:41;12.90;99.90
70550;DHT22;58101;48.658;2.328;2023-03-31T15:28:13;13.00;99.90
70550;DHT22;58101;48.658;2.328;2023-03-31T15:30:41;13.20;99.90
70550;DHT22;58101;48.658;2.328;2023-03-31T15:33:13;13.30;99.90
70550;DHT22;58101;48.658;2.328;2023-03-31T15:35:50;13.30;99.90
70550;DHT22;58101;48.658;2.328;2023-03-31T15:38:26;13.40;99.90
70550;DHT22;58101;48.658;2.328;2023-03-31T15:41:12;13.40;99.90
70550;DHT22;58101;48.658;2.328;2023-03-31T15:43:46;13.50;99.90
70550;DHT22;58101;48.658;2.328;2023-03-31T15:52:37;13.20;99.90
70550;DHT22;58101;48.658;2.328;2023-03-31T15:57:53;13.10;99.90
70550;DHT22;58101;48.658;2.328;2023-03-31T16:03:00;13.10;99.90
70550;DHT22;58101;48.658;2.328;2023-03-31T16:05:50;13.00;99.90
70550;DHT22;58101;48.658;2.328;2023-03-31T16:08:26;12.90;99.90
70550;DHT22;58101;48.658;2.328;2023-03-31T16:11:02;12.80;99.90
70550;DHT22;58101;48.658;2.328;2023-03-31T16:13:30;12.70;99.90
70550;DHT22;58101;48.658;2.328;2023-03-31T16:15:57;12.60;99.90
70550;DHT22;58101;48.658;2.328;2023-03-31T16:18:25;12.60;99.90
70550;DHT22;58101;48.658;2.328;2023-03-31T16:20:54;12.60;99.90
70550;DHT22;58101;48.658;2.328;2023-03-31T16:23:30;12.60;99.90
70550;DHT22;58101;48.658;2.328;2023-03-31T16:25:57;12.60;99.90
70550;DHT22;58101;48.658;2.328;2023-03-31T16:28:25;12.70;99.90
70550;DHT22;58101;48.658;2.328;2023-03-31T16:30:51;12.80;99.90
70550;DHT22;58101;48.658;2.328;2023-03-31T16:33:21;12.80;99.90
70550;DHT22;58101;48.658;2.328;2023-03-31T16:35:50;12.80;99.90
70550;DHT22;58101;48.658;2.328;2023-03-31T16:38:19;12.70;99.90
70550;DHT22;58101;48.658;2.328;2023-03-31T16:40:51;12.70;99.90
70550;DHT22;58101;48.658;2.328;2023-03-31T16:43:28;12.70;99.90
70550;DHT22;58101;48.658;2.328;2023-03-31T16:45:59;12.60;99.90
70550;DHT22;58101;48.658;2.328;2023-03-31T16:48:26;12.60;99.90
70550;DHT22;58101;48.658;2.328;2023-03-31T16:50:55;12.60;99.90
70550;DHT22;58101;48.658;2.328;2023-03-31T16:53:28;12.70;99.90
70550;DHT22;58101;48.658;2.328;2023-03-31T16:55:56;12.80;99.90
70550;DHT22;58101;48.658;2.328;2023-03-31T16:58:22;12.80;99.90
70550;DHT22;58101;48.658;2.328;2023-03-31T17:00:49;12.80;99.90
70550;DHT22;58101;48.658;2.328;2023-03-31T17:03:15;12.90;99.90
70550;DHT22;58101;48.658;2.328;2023-03-31T17:05:46;12.70;99.90
70550;DHT22;58101;48.658;2.328;2023-03-31T17:08:13;12.70;99.90
70550;DHT22;58101;48.658;2.328;2023-03-31T17:10:40;12.60;99.90
70550;DHT22;58101;48.658;2.328;2023-03-31T17:13:08;12.60;99.90
70550;DHT22;58101;48.658;2.328;2023-03-31T17:15:34;12.60;99.90
70550;DHT22;58101;48.658;2.328;2023-03-31T17:18:03;12.60;99.90
70550;DHT22;58101;48.658;2.328;2023-03-31T17:20:29;12.50;99.90
70550;DHT22;58101;48.658;2.328;2023-03-31T17:22:55;12.50;99.90
70550;DHT22;58101;48.658;2.328;2023-03-31T17:25:21;12.50;99.90
70550;DHT22;58101;48.658;2.328;2023-03-31T17:27:47;12.50;99.90
70550;DHT22;58101;48.658;2.328;2023-03-31T17:30:13;12.40;99.90
70550;DHT22;58101;48.658;2.328;2023-03-31T17:32:40;12.40;99.90
70550;DHT22;58101;48.658;2.328;2023-03-31T17:35:07;12.40;99.90
70550;DHT22;58101;48.658;2.328;2023-03-31T17:37:33;12.40;99.90
70550;DHT22;58101;48.658;2.328;2023-03-31T17:39:59;12.40;99.90
70550;DHT22;58101;48.658;2.328;2023-03-31T17:42:37;12.30;99.90
70550;DHT22;58101;48.658;2.328;2023-03-31T17:45:04;12.30;99.90
70550;DHT22;58101;48.658;2.328;2023-03-31T17:47:32;12.10;99.90
70550;DHT22;58101;48.658;2.328;2023-03-31T17:49:58;12.20;99.90
70550;DHT22;58101;48.658;2.328;2023-03-31T17:52:24;12.20;99.90
70550;DHT22;58101;48.658;2.328;2023-03-31T17:54:49;12.10;99.90
70550;DHT22;58101;48.658;2.328;2023-03-31T17:57:16;12.10;99.90
70550;DHT22;58101;48.658;2.328;2023-03-31T17:59:42;12.10;99.90
70550;DHT22;58101;48.658;2.328;2023-03-31T18:02:10;12.00;99.90
70550;DHT22;58101;48.658;2.328;2023-03-31T18:04:37;12.00;99.90
70550;DHT22;58101;48.658;2.328;2023-03-31T18:07:06;12.00;99.90
70550;DHT22;58101;48.658;2.328;2023-03-31T18:09:32;11.90;99.90
70550;DHT22;58101;48.658;2.328;2023-03-31T18:11:58;11.90;99.90
70550;DHT22;58101;48.658;2.328;2023-03-31T18:14:24;11.80;99.90
70550;DHT22;58101;48.658;2.328;2023-03-31T18:16:51;11.80;99.90
70550;DHT22;58101;48.658;2.328;2023-03-31T18:19:17;11.80;99.90
70550;DHT22;58101;48.658;2.328;2023-03-31T18:21:43;11.80;99.90
70550;DHT22;58101;48.658;2.328;2023-03-31T18:24:09;11.80;99.90
70550;DHT22;58101;48.658;2.328;2023-03-31T18:26:34;11.80;99.90
70550;DHT22;58101;48.658;2.328;2023-03-31T18:29:01;11.80;99.90
70550;DHT22;58101;48.658;2.328;2023-03-31T18:31:27;11.70;99.90
70550;DHT22;58101;48.658;2.328;2023-03-31T18:33:59;11.70;99.90
70550;DHT22;58101;48.658;2.328;2023-03-31T18:36:24;11.80;99.90
70550;DHT22;58101;48.658;2.328;2023-03-31T18:38:51;11.80;99.90
70550;DHT22;58101;48.658;2.328;2023-03-31T18:41:17;11.80;99.90
70550;DHT22;58101;48.658;2.328;2023-03-31T18:43:43;11.80;99.90
70550;DHT22;58101;48.658;2.328;2023-03-31T18:46:09;11.70;99.90
70550;DHT22;58101;48.658;2.328;2023-03-31T18:48:45;11.70;99.90
70550;DHT22;58101;48.658;2.328;2023-03-31T18:51:37;11.70;99.90
70550;DHT22;58101;48.658;2.328;2023-03-31T18:54:03;11.70;99.90
70550;DHT22;58101;48.658;2.328;2023-03-31T18:56:28;11.70;99.90
70550;DHT22;58101;48.658;2.328;2023-03-31T18:58:55;11.60;99.90
70550;DHT22;58101;48.658;2.328;2023-03-31T19:01:20;11.60;99.90
70550;DHT22;58101;48.658;2.328;2023-03-31T19:03:46;11.60;99.90
70550;DHT22;58101;48.658;2.328;2023-03-31T19:06:12;11.50;99.90
70550;DHT22;58101;48.658;2.328;2023-03-31T19:08:41;11.50;99.90
70550;DHT22;58101;48.658;2.328;2023-03-31T19:11:12;11.40;99.90
70550;DHT22;58101;48.658;2.328;2023-03-31T19:13:39;11.30;99.90
70550;DHT22;58101;48.658;2.328;2023-03-31T19:16:06;11.30;99.90
70550;DHT22;58101;48.658;2.328;2023-03-31T19:18:32;11.30;99.90
70550;DHT22;58101;48.658;2.328;2023-03-31T19:20:59;11.20;99.90
70550;DHT22;58101;48.658;2.328;2023-03-31T19:23:25;11.20;99.90
70550;DHT22;58101;48.658;2.328;2023-03-31T19:25:55;11.20;99.90
70550;DHT22;58101;48.658;2.328;2023-03-31T19:28:23;11.20;99.90
70550;DHT22;58101;48.658;2.328;2023-03-31T19:30:53;11.20;99.90
70550;DHT22;58101;48.658;2.328;2023-03-31T19:33:21;11.20;99.90
70550;DHT22;58101;48.658;2.328;2023-03-31T19:35:47;11.30;99.90
70550;DHT22;58101;48.658;2.328;2023-03-31T19:38:14;11.20;99.90
70550;DHT22;58101;48.658;2.328;2023-03-31T19:40:42;11.20;99.90
70550;DHT22;58101;48.658;2.328;2023-03-31T19:43:20;11.10;99.90
70550;DHT22;58101;48.658;2.328;2023-03-31T19:45:48;11.10;99.90